Time;durP1;ratioP1;P1;durP2;ratioP2;P2;SDS_P1;SDS_P2;PMS_P1;PMS_P2;Temp;Humidity;BMP_temperature;BMP_pressure;BME280_temperature;BME280_humidity;BME280_pressure;Samples;Min_cycle;Max_cycle;Signal;HPM_P1;HPM_P2
2022/03/06 00:00:19;;;;;;;21.70;13.68;;;;;;;;;;5112184;28;20054;-58
2022/03/06 00:02:44;;;;;;;21.85;13.50;;;0.10;99.90;;;;;;5112461;28;20114;-58
2022/03/06 00:05:10;;;;;;;20.35;13.32;;;;;;;;;;5113369;28;20089;-58
2022/03/06 00:07:37;;;;;;;20.42;14.20;;;0.10;99.90;;;;;;5113262;28;20046;-57
2022/03/06 00:10:03;;;;;;;20.10;13.68;;;0.20;99.90;;;;;;5111943;28;20075;-56
2022/03/06 00:12:29;;;;;;;22.15;13.23;;;;;;;;;;5113427;28;20075;-58
2022/03/06 00:14:55;;;;;;;21.58;14.50;;;;;;;;;;5113229;28;20028;-58
2022/03/06 00:17:21;;;;;;;19.35;13.70;;;0.00;99.90;;;;;;5112084;28;20039;-57
2022/03/06 00:19:46;;;;;;;24.33;14.90;;;0.30;99.90;;;;;;5111811;28;20044;-59
2022/03/06 00:22:13;;;;;;;19.10;14.63;;;;;;;;;;5113276;28;20035;-58
2022/03/06 00:24:39;;;;;;;19.77;14.60;;;;;;;;;;5115304;28;20126;-56
2022/03/06 00:27:05;;;;;;;21.45;13.75;;;;;;;;;;5116713;28;20075;-57
2022/03/06 00:29:30;;;;;;;20.65;14.10;;;0.00;99.90;;;;;;5115495;28;20118;-58
2022/03/06 00:31:56;;;;;;;23.05;14.00;;;0.10;99.90;;;;;;5116915;28;20468;-57
2022/03/06 00:34:21;;;;;;;19.98;13.85;;;0.10;99.90;;;;;;5116615;28;20027;-58
2022/03/06 00:36:47;;;;;;;20.98;13.95;;;0.00;99.90;;;;;;5116675;28;20469;-58
2022/03/06 00:39:13;;;;;;;19.83;13.85;;;0.10;99.90;;;;;;5116733;28;20067;-56
2022/03/06 00:41:38;;;;;;;22.42;14.75;;;0.10;99.90;;;;;;5115034;28;20071;-58
2022/03/06 00:44:04;;;;;;;21.13;14.13;;;0.20;99.90;;;;;;5116315;28;20499;-59
2022/03/06 00:46:30;;;;;;;21.08;14.57;;;0.40;99.90;;;;;;5116842;28;20036;-57
2022/03/06 00:48:56;;;;;;;20.23;13.77;;;;;;;;;;5116727;28;20039;-58
2022/03/06 00:51:22;;;;;;;21.27;13.13;;;;;;;;;;5114980;28;20119;-56
2022/03/06 00:53:47;;;;;;;21.30;14.23;;;0.40;99.90;;;;;;5116097;28;20028;-57
2022/03/06 00:56:13;;;;;;;23.17;13.90;;;0.50;99.90;;;;;;5116493;28;20040;-58
2022/03/06 00:58:38;;;;;;;22.63;12.90;;;0.50;99.90;;;;;;5116389;28;20161;-58
2022/03/06 01:01:05;;;;;;;17.95;12.60;;;0.70;99.90;;;;;;5115447;28;20134;-59
2022/03/06 01:03:31;;;;;;;20.05;13.18;;;;;;;;;;5115394;28;20052;-59
2022/03/06 01:05:57;;;;;;;20.77;13.73;;;0.70;99.90;;;;;;5116363;28;20465;-58
2022/03/06 01:08:23;;;;;;;18.15;12.65;;;0.70;99.90;;;;;;5114402;28;20040;-58
2022/03/06 01:10:50;;;;;;;16.63;11.85;;;0.80;99.90;;;;;;5116314;28;20557;-58
2022/03/06 01:13:17;;;;;;;23.58;13.40;;;0.80;99.90;;;;;;5097914;28;20040;-59
2022/03/06 01:15:43;;;;;;;18.98;12.45;;;0.90;99.90;;;;;;5116000;28;20473;-58
2022/03/06 01:18:09;;;;;;;18.00;12.02;;;;;;;;;;5115573;28;20032;-58
2022/03/06 01:20:36;;;;;;;18.88;10.85;;;0.90;99.90;;;;;;5114727;28;20054;-59
2022/03/06 01:23:03;;;;;;;18.20;11.93;;;1.00;99.90;;;;;;5115753;28;20035;-58
2022/03/06 01:25:29;;;;;;;17.85;11.75;;;0.80;99.90;;;;;;5116016;28;20394;-58
2022/03/06 01:27:55;;;;;;;16.85;11.57;;;0.90;99.90;;;;;;5115566;28;20055;-58
2022/03/06 01:30:21;;;;;;;18.38;12.15;;;0.80;99.90;;;;;;5115319;28;20393;-57
2022/03/06 01:32:48;;;;;;;18.60;11.77;;;;;;;;;;5114476;28;20031;-59
2022/03/06 01:35:14;;;;;;;21.27;11.50;;;;;;;;;;5114951;28;20409;-58
2022/03/06 01:37:40;;;;;;;18.27;12.70;;;1.10;99.90;;;;;;5115422;28;20054;-58
2022/03/06 01:40:07;;;;;;;18.98;11.50;;;1.00;99.90;;;;;;5115387;28;20032;-57
2022/03/06 01:42:33;;;;;;;20.75;12.55;;;;;;;;;;5115368;28;20080;-58
2022/03/06 01:44:59;;;;;;;14.90;10.48;;;0.90;99.90;;;;;;5115621;28;20074;-58
2022/03/06 01:47:46;;;;;;;17.10;11.13;;;1.00;99.90;;;;;;5114102;28;20046;-58
2022/03/06 01:50:15;;;;;;;14.70;10.00;;;1.10;99.90;;;;;;5115235;28;20032;-57
2022/03/06 01:52:41;;;;;;;14.60;10.75;;;;;;;;;;5115002;28;20039;-58
2022/03/06 01:55:07;;;;;;;17.25;10.38;;;;;;;;;;5113710;28;20047;-57
2022/03/06 01:57:33;;;;;;;17.60;9.65;;;0.90;99.90;;;;;;5115762;28;20100;-57
2022/03/06 02:00:00;;;;;;;13.68;9.50;;;;;;;;;;5115366;28;20035;-57
2022/03/06 02:02:26;;;;;;;13.32;9.40;;;0.90;99.90;;;;;;5113868;28;20047;-58
2022/03/06 02:04:51;;;;;;;15.32;10.20;;;0.80;99.90;;;;;;5113642;28;20048;-57
2022/03/06 02:07:17;;;;;;;20.45;10.45;;;0.90;99.90;;;;;;5115711;28;20424;-58
2022/03/06 02:09:43;;;;;;;15.90;9.80;;;0.90;99.90;;;;;;5114817;28;20091;-56
2022/03/06 02:12:23;;;;;;;14.23;9.35;;;0.90;99.90;;;;;;5114813;28;20393;-58
2022/03/06 02:14:54;;;;;;;13.48;9.23;;;0.70;99.90;;;;;;5114662;28;20058;-58
2022/03/06 02:17:20;;;;;;;16.40;10.32;;;;;;;;;;5114468;28;20036;-59
2022/03/06 02:19:52;;;;;;;14.23;9.40;;;0.90;99.90;;;;;;5114586;28;20050;-55
2022/03/06 02:22:22;;;;;;;16.10;10.75;;;0.90;99.90;;;;;;5114723;28;20075;-58
2022/03/06 02:24:48;;;;;;;14.27;8.98;;;;;;;;;;5113391;28;20366;-58
2022/03/06 02:27:15;;;;;;;16.05;10.70;;;;;;;;;;5114343;28;20036;-56
2022/03/06 02:29:42;;;;;;;15.05;10.60;;;;;;;;;;5114126;28;20122;-58
2022/03/06 02:32:09;;;;;;;15.10;10.18;;;1.00;99.90;;;;;;5114344;28;20035;-56
2022/03/06 02:34:37;;;;;;;20.33;10.85;;;1.00;99.90;;;;;;5114320;28;20036;-59
2022/03/06 02:37:03;;;;;;;16.23;9.90;;;1.00;99.90;;;;;;5114441;28;20046;-57
2022/03/06 02:39:29;;;;;;;15.93;9.82;;;0.90;99.90;;;;;;5113050;28;20048;-57
2022/03/06 02:41:55;;;;;;;14.77;9.35;;;0.80;99.90;;;;;;5114479;28;20415;-58
2022/03/06 02:44:21;;;;;;;14.48;10.35;;;0.90;99.90;;;;;;5114469;28;20485;-58
2022/03/06 02:46:48;;;;;;;20.30;11.02;;;0.80;99.90;;;;;;5114067;28;20046;-58
2022/03/06 02:49:14;;;;;;;16.27;10.05;;;;;;;;;;5113905;28;20043;-58
2022/03/06 02:51:41;;;;;;;15.48;9.95;;;0.80;99.90;;;;;;4995533;28;20175;-58
2022/03/06 02:54:07;;;;;;;18.17;9.88;;;0.70;99.90;;;;;;4991378;28;20047;-59
2022/03/06 02:56:33;;;;;;;13.68;9.00;;;0.60;99.90;;;;;;4991874;28;20042;-58
2022/03/06 02:58:59;;;;;;;15.60;9.70;;;0.70;99.90;;;;;;4990620;28;20123;-56
2022/03/06 03:01:25;;;;;;;15.68;10.40;;;0.50;99.90;;;;;;4991828;28;20507;-58
2022/03/06 03:03:51;;;;;;;14.95;9.88;;;;;;;;;;4991380;28;20046;-57
2022/03/06 03:06:17;;;;;;;14.15;9.50;;;0.80;99.90;;;;;;4990183;28;20053;-55
2022/03/06 03:08:43;;;;;;;17.05;10.43;;;;;;;;;;4991148;28;20423;-58
2022/03/06 03:11:09;;;;;;;15.48;9.40;;;;;;;;;;4991106;28;20049;-58
2022/03/06 03:13:34;;;;;;;15.43;9.55;;;0.40;99.90;;;;;;4991278;28;20530;-58
2022/03/06 03:16:00;;;;;;;17.88;9.38;;;0.50;99.90;;;;;;4991311;28;20042;-58
2022/03/06 03:18:26;;;;;;;14.90;9.07;;;0.50;99.90;;;;;;4991040;28;20419;-62
2022/03/06 03:20:51;;;;;;;14.80;10.45;;;0.40;99.90;;;;;;4990631;28;20523;-53
2022/03/06 03:23:17;;;;;;;15.25;10.20;;;0.40;99.90;;;;;;4991184;28;20038;-52
2022/03/06 03:25:42;;;;;;;18.70;10.55;;;0.30;99.90;;;;;;4990336;28;20050;-53
2022/03/06 03:28:09;;;;;;;15.77;9.93;;;0.20;99.90;;;;;;4991910;28;20077;-55
2022/03/06 03:30:35;;;;;;;14.55;10.30;;;0.40;99.90;;;;;;4991715;28;20043;-54
2022/03/06 03:33:01;;;;;;;13.32;9.35;;;;;;;;;;4991608;28;20122;-52
2022/03/06 03:35:26;;;;;;;16.30;10.40;;;0.20;99.90;;;;;;4990464;28;20039;-53
2022/03/06 03:37:52;;;;;;;14.18;9.15;;;0.40;99.90;;;;;;4991441;28;20045;-53
2022/03/06 03:40:18;;;;;;;13.20;9.00;;;;;;;;;;4990292;28;20045;-52
2022/03/06 03:42:44;;;;;;;12.68;9.23;;;;;;;;;;4990539;28;20488;-58
2022/03/06 03:45:10;;;;;;;10.68;8.38;;;0.10;99.90;;;;;;5046740;28;20039;-53
2022/03/06 03:47:36;;;;;;;15.25;10.85;;;0.00;99.90;;;;;;5114523;28;20047;-52
2022/03/06 03:50:03;;;;;;;12.55;8.93;;;0.10;99.90;;;;;;5112734;28;20036;-51
2022/03/06 03:52:28;;;;;;;13.98;9.07;;;0.00;99.90;;;;;;5114341;28;20035;-52
2022/03/06 03:54:54;;;;;;;14.45;9.30;;;0.10;99.90;;;;;;5112589;28;20051;-52
2022/03/06 03:57:23;;;;;;;15.85;8.68;;;;;;;;;;5114432;28;20112;-55
2022/03/06 03:59:49;;;;;;;13.73;9.00;;;;;;;;;;5117099;28;20043;-61
2022/03/06 04:02:14;;;;;;;15.98;9.05;;;-0.10;99.90;;;;;;5118167;28;20032;-52
2022/03/06 04:04:40;;;;;;;14.57;8.93;;;-0.10;99.90;;;;;;5118079;28;20036;-53
2022/03/06 04:07:06;;;;;;;14.07;9.05;;;;;;;;;;5117322;28;20027;-51
2022/03/06 04:09:32;;;;;;;12.40;9.30;;;-0.10;99.90;;;;;;5117955;28;20402;-53
2022/03/06 04:11:57;;;;;;;13.45;8.73;;;-0.10;99.90;;;;;;5100018;28;20047;-54
2022/03/06 04:14:23;;;;;;;14.15;7.97;;;;;;;;;;5117274;28;20053;-55
2022/03/06 04:16:49;;;;;;;13.07;8.10;;;;;;;;;;5118018;28;20477;-54
2022/03/06 04:19:15;;;;;;;12.05;8.05;;;-0.20;99.90;;;;;;5116936;28;20039;-52
2022/03/06 04:21:41;;;;;;;11.07;8.18;;;;;;;;;;5118882;28;20040;-58
2022/03/06 04:24:07;;;;;;;11.13;7.80;;;-0.10;99.90;;;;;;5117106;28;20574;-55
2022/03/06 04:26:34;;;;;;;12.90;7.72;;;;;;;;;;5117814;28;20040;-56
2022/03/06 04:29:00;;;;;;;12.20;6.60;;;;;;;;;;5117314;28;20040;-54
2022/03/06 04:31:26;;;;;;;12.30;7.15;;;;;;;;;;5116126;28;20024;-55
2022/03/06 04:33:51;;;;;;;9.30;7.00;;;-0.30;99.90;;;;;;5117129;28;20114;-54
2022/03/06 04:36:17;;;;;;;9.90;6.50;;;;;;;;;;5117175;28;20046;-56
2022/03/06 04:38:43;;;;;;;8.90;6.70;;;;;;;;;;5117422;28;20173;-59
2022/03/06 04:41:09;;;;;;;12.30;7.32;;;;;;;;;;5116678;28;20516;-58
2022/03/06 04:43:35;;;;;;;11.20;6.90;;;;;;;;;;5116693;28;20042;-58
2022/03/06 04:46:01;;;;;;;10.93;6.07;;;-0.30;99.90;;;;;;5116717;28;20032;-58
2022/03/06 04:48:27;;;;;;;11.63;6.82;;;-0.30;99.90;;;;;;5042573;28;20038;-59
2022/03/06 04:50:53;;;;;;;16.88;7.50;;;-0.60;99.90;;;;;;4993450;28;20041;-59
2022/03/06 04:53:19;;;;;;;8.95;6.55;;;;;;;;;;4993062;28;20515;-59
2022/03/06 04:55:45;;;;;;;11.63;6.68;;;;;;;;;;4992753;28;20104;-59
2022/03/06 04:58:10;;;;;;;10.32;6.15;;;-0.50;99.90;;;;;;4992298;28;20054;-59
2022/03/06 05:00:36;;;;;;;12.48;6.82;;;-0.50;99.90;;;;;;4992794;28;20072;-59
2022/03/06 05:03:02;;;;;;;10.40;5.80;;;;;;;;;;4992787;28;20050;-58
2022/03/06 05:05:27;;;;;;;11.02;5.90;;;-0.40;99.90;;;;;;4992266;28;20046;-59
2022/03/06 05:07:53;;;;;;;10.50;7.00;;;;;;;;;;4992824;28;20412;-59
2022/03/06 05:10:19;;;;;;;9.50;5.93;;;-0.50;99.90;;;;;;4992112;28;20049;-58
2022/03/06 05:12:45;;;;;;;11.45;5.47;;;-0.40;99.90;;;;;;4992723;28;20046;-59
2022/03/06 05:15:12;;;;;;;14.57;6.88;;;-0.70;99.90;;;;;;4992285;28;20132;-53
2022/03/06 05:17:39;;;;;;;9.45;6.07;;;-0.60;99.90;;;;;;4992104;28;20039;-54
2022/03/06 05:20:06;;;;;;;10.05;5.82;;;-0.70;99.90;;;;;;4995704;28;20045;-55
2022/03/06 05:22:32;;;;;;;10.15;5.70;;;-0.70;99.90;;;;;;4992149;28;20042;-54
2022/03/06 05:24:58;;;;;;;11.80;6.07;;;-0.70;99.90;;;;;;4994983;28;20041;-51
2022/03/06 05:27:25;;;;;;;11.95;6.15;;;-0.70;99.90;;;;;;4994745;28;20588;-52
2022/03/06 05:29:51;;;;;;;10.25;5.38;;;-0.80;99.90;;;;;;4991936;28;20046;-54
2022/03/06 05:32:17;;;;;;;9.90;5.65;;;;;;;;;;4991830;28;20043;-52
2022/03/06 05:34:42;;;;;;;11.23;5.68;;;-0.70;99.90;;;;;;4994697;28;20037;-55
2022/03/06 05:37:08;;;;;;;10.13;5.85;;;-0.80;99.90;;;;;;4991858;28;20113;-54
2022/03/06 05:39:34;;;;;;;7.15;5.22;;;-0.80;99.90;;;;;;4992275;28;20095;-51
2022/03/06 05:41:59;;;;;;;8.85;5.40;;;-0.80;99.90;;;;;;4993139;28;20042;-52
2022/03/06 05:44:25;;;;;;;8.75;5.53;;;-0.80;99.90;;;;;;5001330;28;20377;-53
2022/03/06 05:46:50;;;;;;;10.48;6.10;;;-0.90;99.90;;;;;;4993003;28;20042;-54
2022/03/06 05:49:16;;;;;;;10.30;5.75;;;;;;;;;;4999896;28;20038;-54
2022/03/06 05:51:44;;;;;;;7.85;4.93;;;-0.80;99.90;;;;;;4995545;28;20437;-54
2022/03/06 05:54:10;;;;;;;8.27;5.47;;;-0.90;99.90;;;;;;4992941;28;20069;-53
2022/03/06 05:56:37;;;;;;;10.43;5.22;;;;;;;;;;4990474;28;20133;-54
2022/03/06 05:59:03;;;;;;;10.48;5.00;;;-0.70;99.90;;;;;;4991830;28;20038;-53
2022/03/06 06:01:32;;;;;;;9.70;5.63;;;-0.90;99.90;;;;;;4991421;28;20046;-57
2022/03/06 06:03:58;;;;;;;8.13;5.05;;;-0.90;99.90;;;;;;4999079;28;20066;-60
2022/03/06 06:06:24;;;;;;;10.00;5.80;;;;;;;;;;4988915;28;20484;-59
2022/03/06 06:08:50;;;;;;;9.68;5.57;;;;;;;;;;4988022;28;20046;-60
2022/03/06 06:11:17;;;;;;;7.55;5.18;;;;;;;;;;4988157;28;20050;-59
2022/03/06 06:13:43;;;;;;;9.48;6.03;;;;;;;;;;4988301;28;20042;-60
2022/03/06 06:16:09;;;;;;;8.65;5.85;;;;;;;;;;4989488;28;20050;-61
2022/03/06 06:18:35;;;;;;;9.23;5.18;;;;;;;;;;4989222;28;20045;-61
2022/03/06 06:21:01;;;;;;;10.00;5.88;;;;;;;;;;4988006;28;20091;-61
2022/03/06 06:23:27;;;;;;;7.00;4.72;;;;;;;;;;4970920;28;20061;-60
2022/03/06 06:25:53;;;;;;;7.47;4.90;;;;;;;;;;4989678;28;20081;-61
2022/03/06 06:28:19;;;;;;;8.63;5.13;;;;;;;;;;4989535;28;20042;-61
2022/03/06 06:30:46;;;;;;;8.25;4.97;;;;;;;;;;4988938;28;20053;-61
2022/03/06 06:33:12;;;;;;;8.30;4.35;;;;;;;;;;4989432;28;20038;-60
2022/03/06 06:35:38;;;;;;;7.65;5.00;;;;;;;;;;4989303;28;20500;-61
2022/03/06 06:38:05;;;;;;;11.63;4.97;;;;;;;;;;4989123;28;20096;-61
2022/03/06 06:40:31;;;;;;;7.60;4.72;;;;;;;;;;4989475;28;20042;-61
2022/03/06 06:42:57;;;;;;;12.52;5.10;;;;;;;;;;4989139;28;20050;-60
2022/03/06 06:45:23;;;;;;;7.30;4.70;;;;;;;;;;5017858;28;20045;-61
2022/03/06 06:47:49;;;;;;;9.48;5.38;;;;;;;;;;4989523;28;20137;-61
2022/03/06 06:50:16;;;;;;;8.80;4.40;;;;;;;;;;4989031;28;20114;-61
2022/03/06 06:52:42;;;;;;;8.75;5.18;;;;;;;;;;4988968;28;20042;-61
2022/03/06 06:55:08;;;;;;;7.13;5.07;;;-0.80;99.90;;;;;;4986444;28;20069;-58
2022/03/06 06:57:34;;;;;;;8.02;4.03;;;;;;;;;;4986011;28;20050;-57
2022/03/06 07:00:01;;;;;;;8.27;5.07;;;;;;;;;;4986000;28;20058;-59
2022/03/06 07:02:27;;;;;;;8.23;5.32;;;;;;;;;;4986012;28;20069;-59
2022/03/06 07:04:53;;;;;;;9.52;5.28;;;;;;;;;;4985230;28;20057;-59
2022/03/06 07:07:19;;;;;;;6.43;4.55;;;;;;;;;;4986671;28;20038;-59
2022/03/06 07:09:45;;;;;;;8.90;4.97;;;;;;;;;;4986647;28;20082;-60
2022/03/06 07:12:11;;;;;;;6.28;4.53;;;;;;;;;;4987073;28;20420;-59
2022/03/06 07:14:37;;;;;;;9.73;5.25;;;;;;;;;;4991480;28;20073;-60
2022/03/06 07:17:04;;;;;;;8.75;4.95;;;;;;;;;;4988996;28;20045;-60
2022/03/06 07:19:30;;;;;;;6.60;4.20;;;;;;;;;;4987395;28;20133;-60
2022/03/06 07:21:56;;;;;;;9.32;5.20;;;;;;;;;;4999679;28;20141;-59
2022/03/06 07:24:22;;;;;;;9.07;5.30;;;;;;;;;;5005099;28;20048;-60
2022/03/06 07:26:48;;;;;;;9.80;5.40;;;;;;;;;;5025484;28;20051;-60
2022/03/06 07:29:14;;;;;;;10.68;4.47;;;;;;;;;;5108142;28;20047;-60
2022/03/06 07:31:40;;;;;;;9.45;5.53;;;;;;;;;;5107952;28;20062;-61
2022/03/06 07:34:05;;;;;;;9.15;5.10;;;1.50;99.90;;;;;;5074835;28;20038;-61
2022/03/06 07:36:31;;;;;;;7.65;5.35;;;1.90;99.90;;;;;;4989213;28;20053;-61
2022/03/06 07:38:57;;;;;;;8.65;4.63;;;;;;;;;;5012422;28;20044;-62
2022/03/06 07:41:23;;;;;;;8.63;4.85;;;;;;;;;;5112164;28;20081;-62
2022/03/06 07:43:49;;;;;;;6.38;4.03;;;;;;;;;;5111708;28;20054;-62
2022/03/06 07:46:15;;;;;;;10.90;4.50;;;;;;;;;;5103743;28;20491;-62
2022/03/06 07:48:41;;;;;;;5.40;3.83;;;;;;;;;;4984546;28;20137;-61
2022/03/06 07:51:07;;;;;;;4.35;3.28;;;;;;;;;;4988673;28;20396;-62
2022/03/06 07:53:33;;;;;;;4.25;3.80;;;;;;;;;;5003752;28;20090;-62
2022/03/06 07:55:59;;;;;;;4.38;3.05;;;;;;;;;;5003851;28;20057;-60
2022/03/06 07:58:25;;;;;;;5.30;4.00;;;;;;;;;;5003992;28;20066;-61
2022/03/06 08:00:51;;;;;;;5.38;3.05;;;;;;;;;;4985862;28;20490;-60
2022/03/06 08:03:17;;;;;;;6.90;3.38;;;;;;;;;;4985369;28;20076;-61
2022/03/06 08:05:43;;;;;;;6.32;3.78;;;;;;;;;;4983461;28;20038;-61
2022/03/06 08:08:09;;;;;;;8.20;4.22;;;7.60;99.90;;;;;;4984287;28;20076;-60
2022/03/06 08:10:35;;;;;;;6.10;3.55;;;;;;;;;;4985554;28;20042;-59
2022/03/06 08:13:01;;;;;;;4.07;3.05;;;;;;;;;;4985113;28;20046;-61
2022/03/06 08:15:27;;;;;;;6.00;3.70;;;;;;;;;;5006244;28;20039;-62
2022/03/06 08:17:53;;;;;;;4.30;3.28;;;;;;;;;;5106878;28;20051;-61
2022/03/06 08:20:19;;;;;;;4.82;3.10;;;;;;;;;;5106893;28;20040;-60
2022/03/06 08:22:45;;;;;;;5.03;3.10;;;;;;;;;;5106794;28;20047;-60
2022/03/06 08:25:11;;;;;;;3.88;3.15;;;;;;;;;;5106731;28;20047;-60
2022/03/06 08:27:37;;;;;;;5.38;2.90;;;8.30;99.90;;;;;;5107432;28;20039;-62
2022/03/06 08:30:05;;;;;;;3.45;2.20;;;8.00;99.90;;;;;;4994109;28;20096;-63
2022/03/06 08:32:31;;;;;;;3.03;2.42;;;;;;;;;;4998263;28;20048;-63
2022/03/06 08:34:58;;;;;;;3.35;2.65;;;9.10;99.90;;;;;;4992018;28;20056;-63
2022/03/06 08:37:24;;;;;;;3.38;2.33;;;;;;;;;;4992561;28;20054;-62
2022/03/06 08:39:51;;;;;;;3.83;2.60;;;;;;;;;;4992663;28;20045;-62
2022/03/06 08:42:17;;;;;;;4.82;2.55;;;;;;;;;;4989326;28;20038;-62
2022/03/06 08:44:43;;;;;;;7.40;2.83;;;;;;;;;;4986586;28;20099;-62
2022/03/06 08:47:09;;;;;;;3.15;2.75;;;11.40;98.00;;;;;;4987904;28;20049;-62
2022/03/06 08:49:35;;;;;;;3.15;2.35;;;11.90;97.40;;;;;;4991496;28;20743;-62
2022/03/06 08:52:01;;;;;;;4.93;2.60;;;12.70;94.10;;;;;;4983013;28;20042;-61
2022/03/06 08:54:26;;;;;;;5.13;2.75;;;12.50;93.80;;;;;;4982532;28;20043;-63
2022/03/06 08:56:52;;;;;;;4.22;2.65;;;;;;;;;;4983014;28;20150;-62
2022/03/06 08:59:19;;;;;;;4.85;2.75;;;13.10;92.50;;;;;;4985153;28;20038;-62
2022/03/06 09:01:46;;;;;;;3.85;2.53;;;12.70;92.20;;;;;;4981456;28;20389;-63
2022/03/06 09:04:12;;;;;;;3.03;2.33;;;13.60;91.70;;;;;;4983677;28;20038;-61
2022/03/06 09:06:39;;;;;;;2.70;2.30;;;13.50;91.30;;;;;;4982133;28;20046;-61
2022/03/06 09:09:04;;;;;;;6.50;3.20;;;12.50;91.20;;;;;;4987954;28;20046;-61
2022/03/06 09:11:30;;;;;;;4.53;2.00;;;12.80;90.90;;;;;;4988433;28;20506;-63
2022/03/06 09:13:56;;;;;;;4.07;2.22;;;13.10;91.40;;;;;;4989628;28;20430;-61
2022/03/06 09:16:21;;;;;;;3.17;1.88;;;12.90;90.10;;;;;;4995285;28;20042;-60
2022/03/06 09:18:47;;;;;;;7.07;1.98;;;12.70;89.80;;;;;;4987147;28;20587;-61
2022/03/06 09:21:14;;;;;;;3.22;2.05;;;13.70;88.10;;;;;;4986979;28;20086;-62
2022/03/06 09:23:39;;;;;;;5.32;2.00;;;14.40;85.70;;;;;;4985246;28;20054;-62
2022/03/06 09:26:05;;;;;;;3.72;1.67;;;14.90;83.90;;;;;;4982878;28;20597;-68
2022/03/06 09:28:30;;;;;;;2.40;1.85;;;16.00;84.60;;;;;;4981204;28;20511;-68
2022/03/06 09:30:56;;;;;;;4.20;1.90;;;16.40;82.50;;;;;;4983519;28;20045;-63
2022/03/06 09:33:22;;;;;;;4.85;2.13;;;16.80;79.90;;;;;;4987523;28;20059;-63
2022/03/06 09:35:47;;;;;;;3.83;1.95;;;17.10;78.10;;;;;;4983629;28;20164;-64
2022/03/06 09:38:13;;;;;;;4.65;2.33;;;16.30;77.10;;;;;;4986306;28;20046;-60
2022/03/06 09:40:42;;;;;;;2.70;1.80;;;16.70;77.90;;;;;;4985241;28;20095;-63
2022/03/06 09:43:13;;;;;;;2.30;1.83;;;17.10;75.80;;;;;;4984084;28;20047;-62
2022/03/06 09:45:41;;;;;;;3.97;1.63;;;16.60;76.60;;;;;;4989190;28;20053;-63
2022/03/06 09:48:08;;;;;;;3.00;1.80;;;17.10;75.50;;;;;;4982468;28;20140;-63
2022/03/06 09:50:34;;;;;;;2.17;1.35;;;17.90;75.30;;;;;;4982637;28;20046;-62
2022/03/06 09:52:59;;;;;;;3.20;1.60;;;18.20;74.50;;;;;;4982874;28;20038;-63
2022/03/06 09:55:27;;;;;;;3.22;2.13;;;17.60;74.30;;;;;;4981843;28;20416;-62
2022/03/06 09:57:55;;;;;;;2.92;1.13;;;17.80;75.40;;;;;;4985078;28;20052;-62
2022/03/06 10:00:21;;;;;;;3.97;1.77;;;17.70;73.60;;;;;;4982563;28;20042;-64
2022/03/06 10:02:57;;;;;;;4.20;1.25;;;17.20;72.40;;;;;;4982944;28;20393;-63
2022/03/06 10:05:40;;;;;;;3.90;1.55;;;16.80;71.90;;;;;;4984425;28;20107;-63
2022/03/06 10:08:26;;;;;;;3.50;1.33;;;17.90;73.00;;;;;;4989268;28;20078;-63
2022/03/06 10:11:05;;;;;;;3.58;1.27;;;17.20;73.00;;;;;;4988151;28;20042;-64
2022/03/06 10:13:39;;;;;;;4.43;1.35;;;17.00;71.10;;;;;;4986598;28;20046;-65
2022/03/06 10:16:12;;;;;;;3.67;1.20;;;18.00;71.10;;;;;;4988952;28;20046;-64
2022/03/06 10:18:57;;;;;;;2.35;1.20;;;17.50;70.00;;;;;;4986893;28;20865;-64
2022/03/06 10:21:28;;;;;;;3.95;1.58;;;17.30;71.00;;;;;;4992781;28;20185;-64
2022/03/06 10:24:05;;;;;;;3.15;1.38;;;18.80;71.60;;;;;;5000753;28;20112;-65
2022/03/06 10:26:34;;;;;;;5.25;1.58;;;18.00;70.10;;;;;;4986355;28;20549;-64
2022/03/06 10:29:06;;;;;;;2.53;1.13;;;18.00;71.60;;;;;;4997287;28;20082;-64
2022/03/06 10:31:35;;;;;;;4.32;1.38;;;19.00;71.10;;;;;;4986108;28;20103;-63
2022/03/06 10:34:10;;;;;;;3.08;1.13;;;19.40;69.10;;;;;;4985808;28;20035;-62
2022/03/06 10:36:47;;;;;;;2.22;1.10;;;18.40;67.80;;;;;;4984658;28;20117;-60
2022/03/06 10:39:17;;;;;;;2.72;1.33;;;18.00;69.00;;;;;;4988865;28;20408;-60
2022/03/06 10:41:47;;;;;;;3.47;1.20;;;17.40;71.10;;;;;;4984571;28;20065;-60
2022/03/06 10:44:13;;;;;;;3.72;1.30;;;17.00;72.30;;;;;;4993274;28;20118;-60
2022/03/06 10:46:39;;;;;;;7.35;1.83;;;16.80;72.50;;;;;;4986258;28;20076;-60
2022/03/06 10:49:12;;;;;;;4.25;1.50;;;17.60;72.80;;;;;;4987500;28;20092;-61
2022/03/06 10:51:52;;;;;;;3.15;1.35;;;17.20;72.60;;;;;;4985814;28;20050;-60
2022/03/06 10:54:19;;;;;;;2.15;1.20;;;16.10;72.20;;;;;;4990318;28;20078;-58
2022/03/06 10:56:49;;;;;;;3.67;1.35;;;15.10;73.80;;;;;;4998335;28;20042;-60
2022/03/06 10:59:21;;;;;;;5.15;1.25;;;14.30;76.10;;;;;;4985205;28;20042;-60
2022/03/06 11:01:48;;;;;;;3.42;1.48;;;13.70;77.50;;;;;;4987653;28;20046;-59
2022/03/06 11:04:17;;;;;;;2.55;1.80;;;12.90;79.80;;;;;;4988982;28;20046;-60
2022/03/06 11:06:43;;;;;;;2.85;1.50;;;13.20;79.80;;;;;;4987431;28;20673;-60
2022/03/06 11:09:13;;;;;;;2.22;1.73;;;12.40;81.10;;;;;;4985206;28;20115;-62
2022/03/06 11:11:43;;;;;;;2.45;1.20;;;12.40;82.00;;;;;;4988503;28;20042;-61
2022/03/06 11:14:10;;;;;;;4.45;1.77;;;12.10;83.10;;;;;;4987601;28;20054;-62
2022/03/06 11:16:37;;;;;;;4.18;1.77;;;10.70;87.00;;;;;;4967332;28;20042;-59
2022/03/06 11:19:04;;;;;;;4.47;2.08;;;9.90;88.70;;;;;;4986663;28;20129;-61
2022/03/06 11:21:33;;;;;;;4.10;1.92;;;9.80;88.90;;;;;;4990303;28;20145;-61
2022/03/06 11:24:01;;;;;;;4.20;1.88;;;10.10;87.80;;;;;;4996382;28;20046;-62
2022/03/06 11:26:38;;;;;;;3.10;2.08;;;9.80;88.70;;;;;;4994970;28;20106;-61
2022/03/06 11:29:49;;;;;;;4.43;2.58;;;9.70;88.70;;;;;;4985662;28;20051;-60
2022/03/06 11:32:23;;;;;;;3.53;2.13;;;9.00;91.10;;;;;;4989252;28;20062;-61
2022/03/06 11:34:53;;;;;;;3.58;2.00;;;8.80;90.90;;;;;;5005613;28;20052;-62
2022/03/06 11:37:19;;;;;;;4.63;2.35;;;8.50;92.90;;;;;;5009850;28;20133;-58
2022/03/06 11:39:47;;;;;;;4.40;2.58;;;8.50;94.30;;;;;;5029851;28;20072;-59
2022/03/06 11:42:48;;;;;;;5.32;2.30;;;8.50;94.90;;;;;;5028744;28;20132;-59
2022/03/06 11:45:48;;;;;;;4.63;2.47;;;8.50;94.60;;;;;;5051643;28;20047;-60
2022/03/06 11:48:34;;;;;;;4.70;2.15;;;8.30;94.80;;;;;;5061106;28;20038;-60
2022/03/06 11:51:15;;;;;;;5.00;2.25;;;8.30;94.80;;;;;;5017640;28;20270;-60
2022/03/06 11:54:00;;;;;;;4.20;2.80;;;8.60;97.50;;;;;;4973069;28;20049;-60
2022/03/06 11:56:35;;;;;;;4.22;2.53;;;9.00;96.60;;;;;;5007613;28;20511;-60
2022/03/06 11:59:36;;;;;;;3.83;2.30;;;9.10;96.90;;;;;;5008519;28;20083;-61
2022/03/06 12:02:08;;;;;;;3.85;2.70;;;9.00;96.70;;;;;;5002263;28;20046;-60
2022/03/06 12:04:39;;;;;;;6.22;3.03;;;9.30;96.20;;;;;;5000347;28;20121;-60
2022/03/06 12:07:09;;;;;;;5.57;2.97;;;9.40;96.30;;;;;;4996240;28;20503;-59
2022/03/06 12:09:39;;;;;;;4.40;2.33;;;9.00;96.60;;;;;;4972285;28;20107;-60
2022/03/06 12:12:10;;;;;;;3.10;2.50;;;9.10;97.90;;;;;;4991939;28;20042;-60
2022/03/06 12:14:46;;;;;;;5.60;2.80;;;9.00;97.70;;;;;;4988797;28;20041;-60
2022/03/06 12:17:12;;;;;;;3.10;2.38;;;;;;;;;;4990345;28;20054;-62
2022/03/06 12:19:43;;;;;;;5.13;2.65;;;8.60;97.10;;;;;;4993466;28;20095;-61
2022/03/06 12:22:09;;;;;;;3.67;2.45;;;;;;;;;;4977629;28;20050;-60
2022/03/06 12:24:35;;;;;;;5.38;2.90;;;8.40;99.90;;;;;;4993435;28;20048;-61
2022/03/06 12:27:10;;;;;;;4.93;2.95;;;8.50;99.90;;;;;;5009948;28;20117;-62
2022/03/06 12:29:48;;;;;;;4.57;2.70;;;8.60;99.90;;;;;;5003713;28;20049;-62
2022/03/06 12:32:28;;;;;;;5.03;2.58;;;8.80;99.90;;;;;;4993532;28;20042;-62
2022/03/06 12:35:02;;;;;;;4.90;2.50;;;8.60;99.90;;;;;;4991274;28;20070;-62
2022/03/06 12:37:36;;;;;;;4.72;2.83;;;8.60;99.90;;;;;;4992749;28;20039;-61
2022/03/06 12:40:10;;;;;;;5.78;2.67;;;8.60;99.90;;;;;;4993953;28;20040;-61
2022/03/06 12:42:38;;;;;;;5.93;3.40;;;8.80;99.90;;;;;;4992502;28;20040;-61
2022/03/06 12:45:15;;;;;;;5.45;3.35;;;9.00;99.90;;;;;;5002091;28;20038;-60
2022/03/06 12:47:42;;;;;;;4.55;2.55;;;9.20;99.90;;;;;;4991213;28;20042;-60
2022/03/06 12:50:10;;;;;;;3.42;2.20;;;8.90;99.90;;;;;;4992370;28;20049;-59
2022/03/06 12:52:36;;;;;;;2.97;2.50;;;8.70;99.90;;;;;;4991652;28;20038;-62
2022/03/06 12:55:14;;;;;;;4.05;2.50;;;8.50;99.90;;;;;;4993053;28;20130;-62
2022/03/06 12:57:43;;;;;;;5.03;2.38;;;8.50;99.90;;;;;;4992285;28;20080;-61
2022/03/06 13:00:13;;;;;;;4.05;2.88;;;8.60;99.90;;;;;;4992324;28;20404;-61
2022/03/06 13:02:39;;;;;;;6.20;2.65;;;8.70;99.90;;;;;;5003888;28;20042;-60
2022/03/06 13:05:05;;;;;;;3.72;2.58;;;8.70;99.90;;;;;;4991063;28;20057;-61
2022/03/06 13:07:35;;;;;;;6.95;2.67;;;8.70;99.90;;;;;;4977427;28;20042;-61
2022/03/06 13:10:05;;;;;;;4.07;2.67;;;8.90;99.90;;;;;;4992364;28;20046;-61
2022/03/06 13:12:38;;;;;;;5.60;2.90;;;8.80;99.90;;;;;;4993396;28;20407;-60
2022/03/06 13:15:13;;;;;;;6.43;3.08;;;8.50;99.90;;;;;;4995704;28;20038;-60
2022/03/06 13:18:07;;;;;;;5.55;2.90;;;8.60;99.90;;;;;;4990769;28;20042;-61
2022/03/06 13:20:35;;;;;;;5.10;2.90;;;8.70;99.90;;;;;;4993351;28;20050;-62
2022/03/06 13:23:02;;;;;;;6.45;2.78;;;8.80;99.90;;;;;;4976900;28;20147;-60